createdAt,value
2022-09-16T00:01:54.396Z,14.60
2022-09-16T00:04:21.058Z,14.60
2022-09-16T00:06:47.642Z,14.70
2022-09-16T00:09:14.255Z,14.70
2022-09-16T00:11:40.867Z,14.70
2022-09-16T00:14:07.477Z,14.80
2022-09-16T00:16:34.282Z,14.80
2022-09-16T00:19:01.830Z,14.80
2022-09-16T00:21:29.573Z,14.90
2022-09-16T00:23:56.644Z,15.00
2022-09-16T00:26:23.490Z,15.10
2022-09-16T00:28:50.792Z,15.10
2022-09-16T00:31:18.202Z,15.10
2022-09-16T00:33:44.869Z,15.10
2022-09-16T00:36:17.372Z,15.10
2022-09-16T00:38:44.428Z,15.00
2022-09-16T00:41:19.904Z,14.90
2022-09-16T00:43:57.576Z,14.80
2022-09-16T00:46:46.311Z,14.80
2022-09-16T00:49:16.832Z,14.90
2022-09-16T00:51:47.775Z,14.90
2022-09-16T00:54:16.087Z,14.90
2022-09-16T00:56:46.501Z,15.00
2022-09-16T00:59:24.516Z,15.00
2022-09-16T01:01:54.029Z,15.00
2022-09-16T01:04:31.161Z,15.00
2022-09-16T01:06:58.045Z,15.00
2022-09-16T01:09:26.452Z,14.90
2022-09-16T01:11:53.096Z,14.90
2022-09-16T01:14:40.690Z,14.90
2022-09-16T01:17:25.193Z,14.90
2022-09-16T01:20:35.378Z,15.00
2022-09-16T01:23:23.924Z,14.80
2022-09-16T01:26:23.190Z,14.80
2022-09-16T01:29:24.216Z,14.70
2022-09-16T01:32:02.184Z,14.70
2022-09-16T01:34:41.857Z,14.70
2022-09-16T01:37:12.086Z,14.70
2022-09-16T01:40:29.116Z,14.70
2022-09-16T01:43:30.437Z,14.70
2022-09-16T01:46:00.920Z,14.70
2022-09-16T01:48:53.584Z,14.70
2022-09-16T01:51:44.171Z,14.70
2022-09-16T01:54:17.502Z,14.60
2022-09-16T01:56:51.989Z,14.60
2022-09-16T01:59:25.672Z,14.50
2022-09-16T02:01:57.449Z,14.50
2022-09-16T02:04:32.937Z,14.50
2022-09-16T02:07:04.282Z,14.50
2022-09-16T02:09:36.495Z,14.50
2022-09-16T02:12:08.258Z,14.50
2022-09-16T02:14:43.082Z,14.50
2022-09-16T02:17:16.316Z,14.50
2022-09-16T02:20:02.798Z,14.50
2022-09-16T02:22:36.505Z,14.50
2022-09-16T02:25:05.144Z,14.40
2022-09-16T02:27:32.569Z,14.40
2022-09-16T02:30:05.442Z,14.50
2022-09-16T02:32:36.693Z,14.50
2022-09-16T02:35:04.247Z,14.60
2022-09-16T02:37:49.291Z,14.60
2022-09-16T02:40:41.921Z,14.60
2022-09-16T02:43:09.186Z,14.70
2022-09-16T02:46:00.158Z,14.70
2022-09-16T02:48:39.196Z,14.70
2022-09-16T02:51:29.213Z,14.70
2022-09-16T02:54:02.201Z,14.70
2022-09-16T02:56:38.577Z,14.70
2022-09-16T02:59:07.969Z,14.70
2022-09-16T03:01:41.239Z,14.70
2022-09-16T03:04:12.526Z,14.60
2022-09-16T03:06:39.250Z,14.60
2022-09-16T03:09:09.874Z,14.50
2022-09-16T03:12:05.345Z,14.40
2022-09-16T03:14:52.955Z,14.30
2022-09-16T03:17:44.104Z,14.30
2022-09-16T03:20:41.218Z,14.30
2022-09-16T03:23:17.135Z,14.30
2022-09-16T03:26:04.505Z,14.30
2022-09-16T03:28:59.752Z,14.30
2022-09-16T03:31:54.023Z,14.20
2022-09-16T03:34:28.376Z,14.20
2022-09-16T03:37:02.120Z,14.20
2022-09-16T03:39:29.904Z,14.20
2022-09-16T03:42:01.954Z,14.20
2022-09-16T03:44:37.143Z,14.10
2022-09-16T03:47:04.548Z,14.10
2022-09-16T03:49:31.475Z,14.10
2022-09-16T03:51:58.410Z,14.10
2022-09-16T03:54:25.535Z,14.20
2022-09-16T03:56:52.110Z,14.20
2022-09-16T03:59:19.224Z,14.20
2022-09-16T04:01:46.341Z,14.20
2022-09-16T04:04:13.250Z,14.20
2022-09-16T04:06:39.894Z,14.20
2022-09-16T04:09:08.088Z,14.20
2022-09-16T04:11:35.069Z,14.20
2022-09-16T04:14:01.678Z,14.20
2022-09-16T04:19:00.078Z,14.10
2022-09-16T04:21:26.957Z,14.10
2022-09-16T04:23:54.617Z,14.00
2022-09-16T04:26:21.333Z,14.00
2022-09-16T04:28:48.068Z,14.00
2022-09-16T04:31:15.754Z,13.90
2022-09-16T04:33:43.056Z,13.90
2022-09-16T04:36:12.563Z,13.90
2022-09-16T04:38:40.974Z,13.80
2022-09-16T04:41:10.111Z,13.80
2022-09-16T04:43:36.838Z,13.80
2022-09-16T04:46:04.137Z,13.80
2022-09-16T04:48:31.047Z,13.80
2022-09-16T04:51:06.253Z,13.90
2022-09-16T04:53:33.454Z,14.10
2022-09-16T04:56:24.818Z,14.30
2022-09-16T04:58:53.461Z,14.50
2022-09-16T05:01:23.795Z,14.40
2022-09-16T05:03:55.834Z,14.30
2022-09-16T05:06:28.462Z,14.10
2022-09-16T05:08:56.379Z,14.10
2022-09-16T05:11:25.456Z,14.00
2022-09-16T05:13:52.916Z,13.90
2022-09-16T05:16:22.127Z,13.90
2022-09-16T05:18:53.353Z,13.80
2022-09-16T05:21:21.720Z,13.80
2022-09-16T05:23:48.834Z,13.90
2022-09-16T05:26:21.587Z,13.80
2022-09-16T05:28:48.547Z,13.70
2022-09-16T05:31:26.584Z,13.70
2022-09-16T05:33:56.188Z,13.70
2022-09-16T05:36:23.094Z,13.60
2022-09-16T05:39:11.090Z,13.60
2022-09-16T05:41:36.942Z,13.60
2022-09-16T05:44:04.060Z,13.60
2022-09-16T05:46:30.679Z,13.60
2022-09-16T05:48:57.405Z,13.60
2022-09-16T05:51:25.672Z,13.60
2022-09-16T05:53:53.822Z,13.70
2022-09-16T05:56:24.457Z,13.70
2022-09-16T05:58:55.234Z,13.60
2022-09-16T06:01:24.487Z,13.60
2022-09-16T06:03:52.034Z,13.60
2022-09-16T06:06:24.357Z,13.70
2022-09-16T06:08:52.232Z,13.70
2022-09-16T06:11:19.922Z,13.70
2022-09-16T06:13:46.720Z,13.70
2022-09-16T06:16:14.702Z,13.70
2022-09-16T06:18:41.434Z,13.60
2022-09-16T06:21:11.870Z,13.60
2022-09-16T06:23:39.655Z,13.60
2022-09-16T06:26:18.451Z,13.60
2022-09-16T06:28:46.735Z,13.60
2022-09-16T06:31:15.548Z,13.60
2022-09-16T06:33:42.471Z,13.60
2022-09-16T06:36:17.784Z,13.60
2022-09-16T06:38:45.532Z,13.70
2022-09-16T06:41:14.254Z,13.70
2022-09-16T06:43:41.339Z,13.70
2022-09-16T06:46:13.548Z,13.70
2022-09-16T06:48:41.509Z,13.70
2022-09-16T06:51:12.582Z,13.70
2022-09-16T06:53:39.441Z,13.70
2022-09-16T06:56:12.251Z,13.70
2022-09-16T06:58:42.027Z,13.60
2022-09-16T07:01:13.357Z,13.60
2022-09-16T07:03:42.791Z,13.60
2022-09-16T07:06:11.459Z,13.60
2022-09-16T07:08:38.855Z,13.70
2022-09-16T07:11:17.371Z,13.70
2022-09-16T07:13:45.276Z,13.80
2022-09-16T07:16:14.843Z,13.70
2022-09-16T07:18:42.732Z,13.70
2022-09-16T07:21:12.523Z,13.80
2022-09-16T07:23:40.229Z,13.80
2022-09-16T07:26:08.591Z,13.80
2022-09-16T07:28:36.552Z,13.80
2022-09-16T07:31:05.944Z,13.80
2022-09-16T07:33:37.108Z,13.80
2022-09-16T07:36:05.225Z,13.90
2022-09-16T07:38:32.691Z,13.90
2022-09-16T07:41:11.917Z,13.90
2022-09-16T07:43:40.305Z,13.80
2022-09-16T07:46:08.396Z,13.80
2022-09-16T07:48:35.625Z,13.80
2022-09-16T07:51:08.668Z,13.80
2022-09-16T07:53:36.078Z,13.80
2022-09-16T07:56:06.894Z,13.90
2022-09-16T07:58:34.045Z,13.90
2022-09-16T08:03:48.790Z,13.90
2022-09-16T08:06:18.730Z,14.00
2022-09-16T08:08:45.990Z,14.00
2022-09-16T08:11:14.396Z,14.00
2022-09-16T08:13:42.952Z,14.00
2022-09-16T08:16:13.932Z,14.00
2022-09-16T08:18:41.390Z,14.10
2022-09-16T08:21:13.688Z,14.10
2022-09-16T08:23:41.182Z,14.10
2022-09-16T08:26:10.604Z,14.10
2022-09-16T08:28:45.399Z,14.20
2022-09-16T08:31:26.010Z,14.10
2022-09-16T08:33:52.628Z,14.10
2022-09-16T08:36:24.353Z,14.10
2022-09-16T08:38:54.639Z,14.10
2022-09-16T08:41:29.887Z,14.10
2022-09-16T08:44:02.833Z,14.10
2022-09-16T08:46:31.159Z,14.10
2022-09-16T08:49:16.632Z,14.10
2022-09-16T08:51:44.143Z,14.10
2022-09-16T08:54:15.506Z,14.20
2022-09-16T08:56:44.994Z,14.20
2022-09-16T08:59:17.768Z,14.20
2022-09-16T09:02:19.022Z,14.30
2022-09-16T09:04:45.976Z,14.30
2022-09-16T09:07:46.313Z,14.40
2022-09-16T09:10:40.969Z,14.40
2022-09-16T09:13:25.374Z,14.40
2022-09-16T09:16:30.450Z,14.40
2022-09-16T09:19:25.529Z,14.40
2022-09-16T09:22:10.622Z,14.50
2022-09-16T09:24:56.765Z,14.50
2022-09-16T09:28:00.839Z,14.50
2022-09-16T09:30:28.593Z,14.50
2022-09-16T09:33:22.147Z,14.60
2022-09-16T09:36:27.472Z,14.60
2022-09-16T09:39:09.913Z,14.60
2022-09-16T09:42:07.349Z,14.60
2022-09-16T09:44:41.173Z,14.60
2022-09-16T09:47:27.881Z,14.70
2022-09-16T09:49:58.703Z,14.70
2022-09-16T09:52:38.554Z,14.60
2022-09-16T09:55:20.734Z,14.60
2022-09-16T09:58:19.494Z,14.60
2022-09-16T10:00:46.269Z,14.60
2022-09-16T10:03:17.109Z,14.60
2022-09-16T10:05:45.928Z,14.70
2022-09-16T10:08:21.519Z,14.80
2022-09-16T10:10:52.652Z,14.80
2022-09-16T10:13:20.725Z,14.90
2022-09-16T10:15:52.045Z,15.10
2022-09-16T10:18:23.977Z,15.10
2022-09-16T10:21:07.731Z,15.20
2022-09-16T10:23:35.712Z,15.30
2022-09-16T10:26:17.677Z,15.30
2022-09-16T10:28:54.463Z,15.30
2022-09-16T10:31:23.064Z,15.30
2022-09-16T10:33:49.917Z,15.30
2022-09-16T10:36:26.276Z,15.30
2022-09-16T10:39:02.263Z,15.40
2022-09-16T10:41:41.383Z,15.40
2022-09-16T10:44:21.782Z,15.40
2022-09-16T10:47:10.257Z,15.40
2022-09-16T10:49:49.161Z,15.40
2022-09-16T10:52:39.584Z,15.40
2022-09-16T10:55:24.416Z,15.20
2022-09-16T10:57:51.795Z,15.10
2022-09-16T11:00:18.487Z,15.00
2022-09-16T11:02:59.941Z,14.80
2022-09-16T11:05:53.039Z,14.80
2022-09-16T11:08:23.382Z,14.70
2022-09-16T11:11:16.985Z,14.70
2022-09-16T11:14:04.123Z,14.60
2022-09-16T11:16:49.085Z,14.60
2022-09-16T11:19:37.655Z,14.60
2022-09-16T11:22:32.571Z,14.70
2022-09-16T11:25:42.374Z,14.70
2022-09-16T11:28:08.932Z,14.70
2022-09-16T11:30:49.682Z,14.70
2022-09-16T11:33:32.389Z,14.80
2022-09-16T11:36:17.240Z,14.80
2022-09-16T11:38:52.972Z,14.90
2022-09-16T11:41:31.807Z,15.00
2022-09-16T11:44:07.257Z,15.00
2022-09-16T11:46:59.307Z,15.10
2022-09-16T11:49:50.170Z,15.10
2022-09-16T11:52:25.938Z,15.10
2022-09-16T11:55:14.010Z,15.00
2022-09-16T11:57:45.052Z,15.10
2022-09-16T12:00:14.150Z,15.00
2022-09-16T12:02:44.768Z,14.90
2022-09-16T12:05:33.095Z,14.90
2022-09-16T12:08:25.379Z,15.00
2022-09-16T12:11:12.378Z,15.10
2022-09-16T12:13:44.663Z,15.20
2022-09-16T12:16:18.692Z,15.40
2022-09-16T12:18:53.101Z,15.50
2022-09-16T12:21:28.458Z,15.70
2022-09-16T12:24:04.234Z,15.80
2022-09-16T12:26:38.219Z,15.90
2022-09-16T12:29:20.568Z,15.80
2022-09-16T12:31:56.916Z,15.50
2022-09-16T12:34:31.284Z,15.50
2022-09-16T12:37:07.242Z,15.60
2022-09-16T12:39:34.276Z,15.60
2022-09-16T12:42:24.872Z,15.60
2022-09-16T12:45:25.580Z,15.80
2022-09-16T12:48:13.924Z,15.80
2022-09-16T12:50:47.431Z,15.70
2022-09-16T12:53:50.290Z,15.80
2022-09-16T12:56:56.877Z,15.80
2022-09-16T12:59:48.443Z,15.70
2022-09-16T13:02:23.982Z,15.80
2022-09-16T13:04:55.126Z,15.70
2022-09-16T13:07:26.999Z,15.70
2022-09-16T13:10:40.434Z,15.90
2022-09-16T13:13:19.358Z,16.00
2022-09-16T13:15:59.038Z,16.00
2022-09-16T13:19:05.520Z,16.10
2022-09-16T13:21:44.565Z,16.40
2022-09-16T13:24:34.894Z,16.30
2022-09-16T13:27:01.707Z,16.30
2022-09-16T13:29:31.900Z,16.60
2022-09-16T13:31:58.513Z,16.70
2022-09-16T13:34:25.251Z,16.90
2022-09-16T13:36:51.894Z,16.80
2022-09-16T13:39:33.453Z,16.90
2022-09-16T13:42:20.695Z,16.80
2022-09-16T13:44:47.547Z,16.70
2022-09-16T13:47:15.504Z,16.70
2022-09-16T13:49:50.468Z,16.60
2022-09-16T13:52:42.540Z,16.50
2022-09-16T13:55:22.142Z,16.40
2022-09-16T13:57:56.853Z,16.40
2022-09-16T14:00:32.291Z,16.20
2022-09-16T14:03:17.318Z,15.80
2022-09-16T14:06:08.615Z,15.60
2022-09-16T14:08:35.204Z,15.40
2022-09-16T14:11:25.737Z,15.20
2022-09-16T14:16:46.844Z,15.20
2022-09-16T14:19:27.497Z,15.30
2022-09-16T14:22:04.653Z,15.30
2022-09-16T14:24:37.382Z,15.40
2022-09-16T14:27:05.421Z,15.30
2022-09-16T14:29:32.238Z,15.10
2022-09-16T14:31:59.396Z,14.80
2022-09-16T14:34:33.567Z,14.70
2022-09-16T14:37:01.416Z,14.60
2022-09-16T14:39:30.831Z,14.70
2022-09-16T14:42:04.431Z,14.90
2022-09-16T14:44:40.925Z,15.20
2022-09-16T14:47:29.458Z,15.60
2022-09-16T14:50:06.873Z,16.00
2022-09-16T14:52:35.561Z,16.50
2022-09-16T14:57:34.365Z,17.00
2022-09-16T15:00:10.434Z,16.90
2022-09-16T15:02:46.887Z,17.10
2022-09-16T15:05:16.606Z,17.20
2022-09-16T15:07:56.446Z,17.30
2022-09-16T15:10:49.915Z,17.30
2022-09-16T15:13:20.140Z,17.00
2022-09-16T15:15:51.706Z,16.80
2022-09-16T15:18:24.311Z,16.60
2022-09-16T15:20:57.084Z,16.40
2022-09-16T15:23:26.998Z,16.30
2022-09-16T15:25:58.386Z,16.30
2022-09-16T15:28:25.577Z,16.30
2022-09-16T15:30:56.025Z,16.50
2022-09-16T15:33:35.807Z,16.60
2022-09-16T15:36:03.468Z,16.70
2022-09-16T15:38:31.280Z,16.70
2022-09-16T15:41:13.335Z,16.60
2022-09-16T15:43:42.667Z,16.50
2022-09-16T15:46:22.072Z,16.40
2022-09-16T15:49:00.068Z,16.20
2022-09-16T15:51:39.828Z,16.10
2022-09-16T15:54:08.273Z,16.00
2022-09-16T15:56:44.553Z,15.90
2022-09-16T15:59:59.231Z,15.80
2022-09-16T16:02:40.445Z,15.80
2022-09-16T16:05:19.764Z,15.80
2022-09-16T16:07:59.449Z,15.80
2022-09-16T16:10:28.710Z,15.80
2022-09-16T16:12:57.042Z,15.90
2022-09-16T16:15:36.158Z,16.00
2022-09-16T16:18:08.618Z,15.90
2022-09-16T16:20:38.011Z,15.80
2022-09-16T16:23:04.800Z,15.60
2022-09-16T16:25:31.753Z,15.60
2022-09-16T16:27:58.567Z,15.50
2022-09-16T16:30:25.209Z,15.60
2022-09-16T16:32:51.788Z,15.70
2022-09-16T16:35:18.666Z,15.80
2022-09-16T16:37:46.826Z,15.90
2022-09-16T16:40:15.297Z,15.80
2022-09-16T16:42:43.745Z,15.80
2022-09-16T16:45:13.356Z,15.80
2022-09-16T16:47:40.347Z,15.90
2022-09-16T16:50:07.235Z,15.70
2022-09-16T16:52:34.062Z,15.50
2022-09-16T16:55:00.917Z,15.40
2022-09-16T16:57:27.764Z,15.30
2022-09-16T16:59:54.390Z,15.20
2022-09-16T17:02:21.178Z,15.10
2022-09-16T17:04:47.916Z,15.00
2022-09-16T17:07:25.787Z,14.90
2022-09-16T17:09:53.644Z,14.80
2022-09-16T17:12:20.308Z,14.80
2022-09-16T17:14:47.090Z,14.70
2022-09-16T17:17:13.684Z,14.60
2022-09-16T17:19:40.382Z,14.60
2022-09-16T17:22:06.974Z,14.50
2022-09-16T17:24:34.712Z,14.40
2022-09-16T17:27:01.938Z,14.40
2022-09-16T17:29:28.744Z,14.40
2022-09-16T17:31:57.161Z,14.30
2022-09-16T17:34:26.263Z,14.30
2022-09-16T17:36:54.486Z,14.20
2022-09-16T17:39:21.982Z,14.20
2022-09-16T17:41:49.961Z,14.20
2022-09-16T17:44:18.539Z,14.10
2022-09-16T17:46:46.264Z,14.10
2022-09-16T17:49:15.885Z,14.10
2022-09-16T17:51:42.914Z,14.10
2022-09-16T17:54:09.946Z,14.00
2022-09-16T17:56:36.606Z,14.00
2022-09-16T17:59:03.378Z,14.00
2022-09-16T18:01:30.760Z,14.00
2022-09-16T18:03:57.725Z,14.10
2022-09-16T18:06:28.443Z,14.20
2022-09-16T18:08:55.727Z,14.20
2022-09-16T18:11:22.539Z,14.30
2022-09-16T18:13:57.559Z,14.20
2022-09-16T18:16:25.392Z,14.20
2022-09-16T18:18:54.546Z,14.10
2022-09-16T18:21:23.832Z,14.10
2022-09-16T18:23:58.502Z,14.10
2022-09-16T18:26:26.471Z,14.10
2022-09-16T18:29:10.806Z,14.10
2022-09-16T18:31:39.747Z,14.00
2022-09-16T18:34:06.766Z,14.00
2022-09-16T18:36:35.186Z,14.00
2022-09-16T18:39:01.891Z,14.00
2022-09-16T18:41:35.481Z,13.90
2022-09-16T18:44:07.353Z,13.90
2022-09-16T18:46:36.579Z,13.80
2022-09-16T18:49:04.858Z,13.70
2022-09-16T18:51:34.263Z,13.70
2022-09-16T18:54:07.075Z,13.70
2022-09-16T18:56:36.071Z,13.70
2022-09-16T18:59:22.609Z,13.60
2022-09-16T19:01:51.933Z,13.70
2022-09-16T19:04:21.794Z,13.60
2022-09-16T19:06:50.791Z,13.60
2022-09-16T19:09:20.073Z,13.50
2022-09-16T19:11:47.684Z,13.50
2022-09-16T19:14:15.428Z,13.40
2022-09-16T19:16:47.605Z,13.40
2022-09-16T19:19:15.248Z,13.30
2022-09-16T19:21:43.307Z,13.30
2022-09-16T19:24:19.287Z,13.40
2022-09-16T19:26:47.568Z,13.30
2022-09-16T19:29:15.723Z,13.30
2022-09-16T19:31:44.274Z,13.20
2022-09-16T19:34:12.044Z,13.10
2022-09-16T19:36:39.563Z,13.00
2022-09-16T19:39:07.229Z,13.10
2022-09-16T19:41:36.569Z,13.10
2022-09-16T19:44:06.466Z,13.00
2022-09-16T19:46:35.951Z,13.00
2022-09-16T19:49:03.445Z,13.00
2022-09-16T19:51:30.205Z,13.10
2022-09-16T19:53:58.303Z,13.10
2022-09-16T19:56:27.514Z,13.10
2022-09-16T19:58:54.977Z,13.10
2022-09-16T20:01:22.882Z,13.00
2022-09-16T20:03:50.651Z,13.00
2022-09-16T20:06:19.778Z,13.10
2022-09-16T20:08:48.289Z,13.00
2022-09-16T20:11:18.198Z,13.00
2022-09-16T20:13:52.951Z,12.90
2022-09-16T20:16:21.919Z,12.90
2022-09-16T20:18:48.949Z,12.90
2022-09-16T20:21:21.031Z,12.90
2022-09-16T20:23:48.053Z,12.90
2022-09-16T20:26:19.650Z,12.90
2022-09-16T20:28:51.538Z,12.90
2022-09-16T20:31:21.061Z,13.00
2022-09-16T20:33:48.286Z,12.90
2022-09-16T20:36:17.046Z,13.00
2022-09-16T20:38:44.375Z,13.00
2022-09-16T20:41:15.956Z,13.00
2022-09-16T20:43:43.015Z,13.00
2022-09-16T20:46:14.461Z,13.00
2022-09-16T20:48:42.386Z,12.90
2022-09-16T20:51:14.028Z,12.80
2022-09-16T20:53:41.605Z,12.70
2022-09-16T20:56:14.488Z,12.60
2022-09-16T20:58:42.266Z,12.60
2022-09-16T21:01:14.982Z,12.60
2022-09-16T21:03:43.040Z,12.50
2022-09-16T21:06:14.852Z,12.50
2022-09-16T21:08:41.843Z,12.50
2022-09-16T21:11:14.829Z,12.40
2022-09-16T21:13:43.819Z,12.30
2022-09-16T21:16:13.426Z,12.30
2022-09-16T21:18:41.862Z,12.30
2022-09-16T21:21:12.687Z,12.30
2022-09-16T21:23:39.924Z,12.30
2022-09-16T21:26:10.175Z,12.20
2022-09-16T21:28:36.754Z,12.20
2022-09-16T21:31:06.355Z,12.10
2022-09-16T21:33:37.743Z,12.10
2022-09-16T21:36:05.909Z,12.00
2022-09-16T21:38:33.365Z,12.00
2022-09-16T21:41:05.939Z,12.00
2022-09-16T21:43:37.384Z,12.00
2022-09-16T21:46:04.357Z,11.90
2022-09-16T21:48:33.066Z,11.80
2022-09-16T21:51:07.382Z,11.80
2022-09-16T21:53:37.205Z,11.70
2022-09-16T21:56:09.277Z,11.60
2022-09-16T21:58:35.916Z,11.50
2022-09-16T22:01:14.495Z,11.50
2022-09-16T22:03:42.370Z,11.50
2022-09-16T22:06:11.789Z,11.50
2022-09-16T22:08:38.649Z,11.50
2022-09-16T22:11:07.653Z,11.50
2022-09-16T22:13:35.055Z,11.60
2022-09-16T22:16:02.547Z,11.60
2022-09-16T22:18:30.964Z,11.60
2022-09-16T22:21:05.731Z,11.60
2022-09-16T22:23:37.571Z,11.60
2022-09-16T22:26:12.137Z,11.60
2022-09-16T22:28:40.237Z,11.50
2022-09-16T22:31:13.087Z,11.60
2022-09-16T22:33:41.346Z,11.60
2022-09-16T22:36:10.568Z,11.60
2022-09-16T22:38:37.581Z,11.60
2022-09-16T22:41:09.250Z,11.50
2022-09-16T22:43:37.014Z,11.40
2022-09-16T22:46:09.039Z,11.30
2022-09-16T22:48:36.227Z,11.20
2022-09-16T22:51:04.385Z,11.30
2022-09-16T22:53:32.738Z,11.30
2022-09-16T22:56:02.080Z,11.30
2022-09-16T22:58:29.714Z,11.30
2022-09-16T23:01:11.270Z,11.30
2022-09-16T23:03:38.392Z,11.20
2022-09-16T23:06:08.882Z,11.10
2022-09-16T23:08:37.987Z,11.10
2022-09-16T23:11:06.879Z,11.00
2022-09-16T23:13:35.202Z,10.90
2022-09-16T23:16:06.932Z,10.90
2022-09-16T23:18:34.911Z,10.80
2022-09-16T23:21:04.822Z,10.80
2022-09-16T23:23:34.888Z,10.80
2022-09-16T23:26:07.155Z,10.70
2022-09-16T23:28:34.410Z,10.70
2022-09-16T23:31:08.427Z,10.60
2022-09-16T23:33:35.606Z,10.60
2022-09-16T23:36:03.495Z,10.60
2022-09-16T23:38:30.308Z,10.60
2022-09-16T23:41:03.076Z,10.60
2022-09-16T23:43:30.094Z,10.50
2022-09-16T23:45:57.043Z,10.40
2022-09-16T23:48:23.644Z,10.50
2022-09-16T23:50:50.900Z,10.40
2022-09-16T23:53:17.649Z,10.40
2022-09-16T23:55:44.622Z,10.40
2022-09-16T23:58:11.673Z,10.30
